CheckWX is a tool to help pilots better visualize weather data.  It is not intended as a substitute for an official pre-flight weather briefing.

20:02:40 UTC

KUKI TAF
Ukiah Municipal Airport
Ukiah, California, USA
KUKI 251905Z 2518/2618 32008KT P6SM SKC FM252000 33010G18KT P6SM SCT250 FM260500 35005KT P6SM SKC FM260800 00000KT P6SM SKC

Jun-25@
18:00 UTC

Jun-25 @ 18:00 UTC

Jun-25@
20:00 UTC

Jun-25 @ 20:00 UTC

KUKI 251905Z 2518/2618 32008KT P6SM SKC

Expired

Wind
  • 320° at 8 KTS
Cloud Levels
  • Clear skies

Jun-25@
20:00 UTC

Jun-25 @ 20:00 UTC

Jun-26@
05:00 UTC

Jun-26 @ 05:00 UTC

FM252000 33010G18KT P6SM SCT250

From

From Standard forecast or significant change

Wind
  • 330° at 10 KTS
  • {Gusting to 18 KTS
Cloud Levels
  • Scattered at 25,000' AGL

Jun-26@
05:00 UTC

Jun-26 @ 05:00 UTC

Jun-26@
08:00 UTC

Jun-26 @ 08:00 UTC

FM260500 35005KT P6SM SKC

From

From Standard forecast or significant change

Wind
  • 350° at 5 KTS
Cloud Levels
  • Clear skies

Jun-26@
08:00 UTC

Jun-26 @ 08:00 UTC

Jun-26@
18:00 UTC

Jun-26 @ 18:00 UTC

FM260800 00000KT P6SM SKC

From

From Standard forecast or significant change

Cloud Levels
  • Clear skies